createdAt,value
2023-05-15T00:00:26.459Z,21.00
2023-05-15T00:02:54.205Z,21.17
2023-05-15T00:05:21.841Z,21.07
2023-05-15T00:07:49.539Z,21.50
2023-05-15T00:10:17.189Z,21.70
2023-05-15T00:12:44.735Z,21.53
2023-05-15T00:15:12.270Z,21.70
2023-05-15T00:17:40.099Z,21.87
2023-05-15T00:20:07.857Z,21.80
2023-05-15T00:22:35.458Z,22.03
2023-05-15T00:25:03.093Z,22.13
2023-05-15T00:27:30.713Z,22.37
2023-05-15T00:29:58.189Z,22.90
2023-05-15T00:32:25.780Z,23.10
2023-05-15T00:34:53.283Z,22.90
2023-05-15T00:37:20.887Z,21.97
2023-05-15T00:39:48.424Z,23.30
2023-05-15T00:42:15.998Z,23.37
2023-05-15T00:44:44.905Z,22.30
2023-05-15T00:47:13.108Z,21.47
2023-05-15T00:49:42.021Z,22.63
2023-05-15T00:52:09.597Z,21.27
2023-05-15T00:54:37.133Z,21.53
2023-05-15T00:57:06.106Z,23.00
2023-05-15T00:59:34.133Z,23.10
2023-05-15T01:02:01.815Z,22.97
2023-05-15T01:04:29.535Z,21.73
2023-05-15T01:06:57.194Z,22.50
2023-05-15T01:09:24.841Z,23.23
2023-05-15T01:11:55.054Z,22.37
2023-05-15T01:14:22.708Z,22.30
2023-05-15T01:16:50.212Z,22.17
2023-05-15T01:19:17.996Z,22.67
2023-05-15T01:22:03.974Z,22.50
2023-05-15T01:24:34.537Z,21.57
2023-05-15T01:27:20.930Z,22.57
2023-05-15T01:29:48.445Z,22.43
2023-05-15T01:32:21.004Z,22.93
2023-05-15T01:34:54.756Z,21.30
2023-05-15T01:37:25.328Z,23.37
2023-05-15T01:39:56.477Z,22.43
2023-05-15T01:42:27.036Z,24.37
2023-05-15T01:44:56.234Z,23.53
2023-05-15T01:47:28.621Z,23.40
2023-05-15T01:49:57.356Z,21.93
2023-05-15T01:52:31.437Z,21.47
2023-05-15T01:54:59.285Z,22.10
2023-05-15T01:57:27.472Z,21.30
2023-05-15T01:59:55.889Z,21.40
2023-05-15T02:02:24.021Z,22.03
2023-05-15T02:04:52.380Z,22.43
2023-05-15T02:07:20.292Z,22.13
2023-05-15T02:09:48.679Z,22.00
2023-05-15T02:12:16.272Z,22.80
2023-05-15T02:14:44.396Z,22.47
2023-05-15T02:17:11.897Z,22.33
2023-05-15T02:19:39.582Z,23.67
2023-05-15T02:22:07.175Z,23.27
2023-05-15T02:24:34.736Z,21.90
2023-05-15T02:27:11.168Z,24.03
2023-05-15T02:29:56.677Z,24.20
2023-05-15T02:32:34.400Z,22.97
2023-05-15T02:35:11.354Z,23.90
2023-05-15T02:37:39.613Z,23.07
2023-05-15T02:40:10.615Z,22.57
2023-05-15T02:42:38.466Z,23.43
2023-05-15T02:45:06.487Z,23.63
2023-05-15T02:47:34.245Z,22.47
2023-05-15T02:50:02.173Z,23.87
2023-05-15T02:52:29.783Z,22.77
2023-05-15T02:54:57.313Z,23.00
2023-05-15T02:57:24.867Z,23.43
2023-05-15T02:59:53.105Z,23.73
2023-05-15T03:02:20.698Z,25.30
2023-05-15T03:04:48.199Z,23.90
2023-05-15T03:07:16.025Z,24.73
2023-05-15T03:09:43.557Z,24.23
2023-05-15T03:12:11.215Z,23.70
2023-05-15T03:14:38.766Z,26.47
2023-05-15T03:17:06.531Z,27.30
2023-05-15T03:19:34.071Z,26.10
2023-05-15T03:22:01.773Z,25.23
2023-05-15T03:24:29.433Z,25.10
2023-05-15T03:26:57.037Z,25.27
2023-05-15T03:29:24.584Z,25.23
2023-05-15T03:31:52.389Z,25.70
2023-05-15T03:34:19.982Z,25.50
2023-05-15T03:36:47.595Z,24.87
2023-05-15T03:39:15.093Z,23.43
2023-05-15T03:41:42.630Z,25.23
2023-05-15T03:44:10.144Z,24.97
2023-05-15T03:46:39.271Z,23.97
2023-05-15T03:49:06.892Z,23.77
2023-05-15T03:51:34.527Z,25.20
2023-05-15T03:54:02.069Z,24.53
2023-05-15T03:56:29.674Z,23.73
2023-05-15T03:58:57.171Z,24.30
2023-05-15T04:01:24.743Z,23.40
2023-05-15T04:03:52.240Z,24.90
2023-05-15T04:06:19.840Z,23.57
2023-05-15T04:08:47.396Z,25.27
2023-05-15T04:11:14.971Z,24.00
2023-05-15T04:13:42.552Z,24.33
2023-05-15T04:16:10.219Z,22.77
2023-05-15T04:18:38.897Z,23.83
2023-05-15T04:21:06.549Z,22.57
2023-05-15T04:23:34.089Z,25.77
2023-05-15T04:26:01.685Z,23.13
2023-05-15T04:28:30.446Z,22.27
2023-05-15T04:30:58.178Z,20.63
2023-05-15T04:33:25.744Z,23.60
2023-05-15T04:35:53.435Z,22.33
2023-05-15T04:38:20.973Z,23.67
2023-05-15T04:40:48.560Z,23.47
2023-05-15T04:43:16.136Z,20.73
2023-05-15T04:45:43.776Z,20.70
2023-05-15T04:48:11.402Z,21.97
2023-05-15T04:50:38.977Z,20.47
2023-05-15T04:53:06.464Z,21.03
2023-05-15T04:55:33.980Z,19.43
2023-05-15T04:58:01.612Z,20.10
2023-05-15T05:00:29.560Z,20.83
2023-05-15T05:02:57.098Z,21.30
2023-05-15T05:05:24.830Z,21.50
2023-05-15T05:07:52.573Z,22.93
2023-05-15T05:10:20.180Z,22.83
2023-05-15T05:12:50.129Z,24.60
2023-05-15T05:15:17.727Z,24.53
2023-05-15T05:17:45.282Z,24.40
2023-05-15T05:20:13.299Z,24.97
2023-05-15T05:22:41.034Z,25.53
2023-05-15T05:25:08.864Z,26.10
2023-05-15T05:27:36.492Z,25.13
2023-05-15T05:30:04.206Z,25.70
2023-05-15T05:32:32.014Z,27.20
2023-05-15T05:34:59.559Z,26.27
2023-05-15T05:37:27.097Z,26.03
2023-05-15T05:39:54.691Z,27.73
2023-05-15T05:42:22.215Z,29.73
2023-05-15T05:44:49.759Z,28.73
2023-05-15T05:47:17.415Z,27.80
2023-05-15T05:49:47.247Z,26.80
2023-05-15T05:52:14.832Z,27.27
2023-05-15T05:54:42.532Z,26.30
2023-05-15T05:57:10.263Z,26.03
2023-05-15T05:59:37.810Z,25.83
2023-05-15T06:02:05.554Z,26.93
2023-05-15T06:04:33.647Z,26.07
2023-05-15T06:07:01.329Z,25.53
2023-05-15T06:09:28.898Z,25.00
2023-05-15T06:11:56.472Z,25.60
2023-05-15T06:14:23.954Z,25.07
2023-05-15T06:16:51.582Z,23.83
2023-05-15T06:19:19.253Z,24.83
2023-05-15T06:21:46.941Z,24.00
2023-05-15T06:24:14.909Z,22.33
2023-05-15T06:26:42.534Z,24.77
2023-05-15T06:29:10.057Z,24.50
2023-05-15T06:31:37.725Z,24.37
2023-05-15T06:34:05.295Z,22.93
2023-05-15T06:36:32.857Z,22.07
2023-05-15T06:39:00.424Z,22.97
2023-05-15T06:41:28.023Z,22.10
2023-05-15T06:43:55.573Z,21.73
2023-05-15T06:46:23.201Z,23.10
2023-05-15T06:48:50.774Z,21.87
2023-05-15T06:51:18.444Z,21.73
2023-05-15T06:53:45.966Z,22.63
2023-05-15T06:56:13.565Z,22.20
2023-05-15T06:58:41.064Z,23.57
2023-05-15T07:01:09.624Z,22.10
2023-05-15T07:03:37.202Z,23.60
2023-05-15T07:06:05.079Z,22.70
2023-05-15T07:08:32.629Z,23.87
2023-05-15T07:11:00.230Z,24.60
2023-05-15T07:13:27.822Z,24.37
2023-05-15T07:15:55.441Z,24.30
2023-05-15T07:18:23.032Z,24.90
2023-05-15T07:20:50.725Z,25.13
2023-05-15T07:23:18.282Z,25.23
2023-05-15T07:25:46.143Z,27.50
2023-05-15T07:28:16.322Z,26.17
2023-05-15T07:30:43.989Z,25.73
2023-05-15T07:33:11.550Z,26.70
2023-05-15T07:35:39.164Z,26.93
2023-05-15T07:38:06.716Z,25.07
2023-05-15T07:40:34.321Z,25.43
2023-05-15T07:43:01.807Z,24.77
2023-05-15T07:45:29.350Z,25.20
2023-05-15T07:47:56.998Z,24.60
2023-05-15T07:50:24.949Z,20.60
2023-05-15T07:52:52.527Z,21.07
2023-05-15T07:55:20.267Z,21.90
2023-05-15T07:57:53.367Z,23.03
2023-05-15T08:00:21.522Z,24.27
2023-05-15T08:02:49.164Z,23.23
2023-05-15T08:05:16.953Z,23.77
2023-05-15T08:07:44.549Z,23.90
2023-05-15T08:10:12.196Z,25.23
2023-05-15T08:12:39.712Z,24.37
2023-05-15T08:15:07.595Z,23.50
2023-05-15T08:17:35.162Z,23.67
2023-05-15T08:20:02.819Z,23.20
2023-05-15T08:22:30.388Z,22.97
2023-05-15T08:24:58.165Z,22.53
2023-05-15T08:27:25.683Z,22.70
2023-05-15T08:29:53.497Z,22.20
2023-05-15T08:32:21.079Z,20.50
2023-05-15T08:34:48.636Z,22.67
2023-05-15T08:37:16.142Z,23.73
2023-05-15T08:39:43.674Z,22.87
2023-05-15T08:42:34.409Z,25.83
2023-05-15T08:45:02.154Z,26.93
2023-05-15T08:47:30.003Z,26.83
2023-05-15T08:50:03.124Z,25.33
2023-05-15T08:52:30.795Z,24.70
2023-05-15T08:54:59.439Z,25.50
2023-05-15T08:57:27.191Z,24.27
2023-05-15T08:59:55.105Z,25.70
2023-05-15T09:02:23.721Z,22.17
2023-05-15T09:04:51.254Z,22.00
2023-05-15T09:07:19.005Z,19.87
2023-05-15T09:09:46.809Z,17.33
2023-05-15T09:12:15.773Z,19.57
2023-05-15T09:14:46.251Z,22.40
2023-05-15T09:17:13.837Z,21.33
2023-05-15T09:19:42.344Z,21.50
2023-05-15T09:22:16.258Z,22.03
2023-05-15T09:24:44.259Z,22.10
2023-05-15T09:27:11.915Z,21.43
2023-05-15T09:29:40.203Z,18.97
2023-05-15T09:32:09.363Z,21.20
2023-05-15T09:34:37.890Z,21.37
2023-05-15T09:37:06.758Z,20.93
2023-05-15T09:39:36.295Z,20.20
2023-05-15T09:42:11.181Z,20.53
2023-05-15T09:44:42.724Z,19.77
2023-05-15T09:47:14.360Z,21.40
2023-05-15T09:49:44.887Z,21.43
2023-05-15T09:52:12.549Z,21.00
2023-05-15T09:54:40.458Z,19.07
2023-05-15T09:57:09.131Z,19.00
2023-05-15T09:59:36.709Z,20.03
2023-05-15T10:02:04.392Z,21.83
2023-05-15T10:04:35.244Z,21.03
2023-05-15T10:07:02.907Z,20.87
2023-05-15T10:09:31.204Z,20.67
2023-05-15T10:11:58.762Z,16.77
2023-05-15T10:14:27.313Z,19.10
2023-05-15T10:16:56.036Z,19.83
2023-05-15T10:19:25.206Z,19.23
2023-05-15T10:21:54.438Z,19.67
2023-05-15T10:24:22.181Z,20.20
2023-05-15T10:26:50.047Z,19.00
2023-05-15T10:29:19.131Z,20.33
2023-05-15T10:31:46.836Z,19.97
2023-05-15T10:34:14.688Z,18.17
2023-05-15T10:36:43.334Z,17.00
2023-05-15T10:39:11.356Z,14.30
2023-05-15T10:41:40.122Z,15.63
2023-05-15T10:44:07.679Z,16.80
2023-05-15T10:46:36.141Z,16.00
2023-05-15T10:49:03.908Z,17.13
2023-05-15T10:51:32.255Z,17.53
2023-05-15T10:54:01.049Z,16.30
2023-05-15T10:56:32.470Z,15.63
2023-05-15T10:59:05.842Z,13.90
2023-05-15T11:01:34.406Z,13.87
2023-05-15T11:04:14.069Z,13.93
2023-05-15T11:06:45.424Z,10.97
2023-05-15T11:09:22.377Z,12.07
2023-05-15T11:11:53.199Z,12.57
2023-05-15T11:14:20.705Z,15.63
2023-05-15T11:16:57.678Z,13.50
2023-05-15T11:19:31.836Z,12.80
2023-05-15T11:21:59.393Z,12.43
2023-05-15T11:24:33.769Z,12.63
2023-05-15T11:27:02.148Z,12.97
2023-05-15T11:29:29.774Z,12.77
2023-05-15T11:31:57.702Z,13.07
2023-05-15T11:34:34.920Z,15.43
2023-05-15T11:37:02.598Z,14.43
2023-05-15T11:39:30.206Z,13.17
2023-05-15T11:41:59.232Z,13.47
2023-05-15T11:44:27.983Z,14.07
2023-05-15T11:46:55.790Z,13.77
2023-05-15T11:49:23.463Z,13.20
2023-05-15T11:51:51.795Z,11.47
2023-05-15T11:54:19.511Z,11.40
2023-05-15T11:56:47.049Z,13.27
2023-05-15T11:59:14.867Z,13.20
2023-05-15T12:01:42.888Z,13.30
2023-05-15T12:04:17.474Z,13.57
2023-05-15T12:06:45.645Z,14.80
2023-05-15T12:09:16.614Z,15.57
2023-05-15T12:11:53.744Z,14.10
2023-05-15T12:14:30.829Z,13.67
2023-05-15T12:17:01.796Z,14.17
2023-05-15T12:19:29.452Z,13.70
2023-05-15T12:21:57.031Z,12.33
2023-05-15T12:24:25.087Z,15.97
2023-05-15T12:26:53.372Z,14.23
2023-05-15T12:29:22.062Z,14.33
2023-05-15T12:31:49.788Z,15.00
2023-05-15T12:34:17.472Z,14.37
2023-05-15T12:36:45.015Z,12.27
2023-05-15T12:39:12.634Z,12.10
2023-05-15T12:41:40.103Z,12.03
2023-05-15T12:44:07.714Z,9.63
2023-05-15T12:46:35.551Z,10.27
2023-05-15T12:49:03.148Z,13.10
2023-05-15T12:51:30.659Z,14.23
2023-05-15T12:53:58.262Z,16.70
2023-05-15T12:56:25.897Z,17.80
2023-05-15T12:58:53.555Z,17.03
2023-05-15T13:01:22.581Z,18.97
2023-05-15T13:03:50.651Z,17.73
2023-05-15T13:06:18.513Z,16.47
2023-05-15T13:08:47.823Z,15.40
2023-05-15T13:11:15.523Z,15.87
2023-05-15T13:13:43.069Z,17.27
2023-05-15T13:16:24.878Z,17.73
2023-05-15T13:18:52.965Z,16.83
2023-05-15T13:21:20.576Z,16.80
2023-05-15T13:23:48.186Z,16.97
2023-05-15T13:26:15.845Z,15.10
2023-05-15T13:28:43.376Z,14.73
2023-05-15T13:31:11.028Z,16.17
2023-05-15T13:33:38.645Z,16.63
2023-05-15T13:36:06.330Z,15.67
2023-05-15T13:38:33.932Z,15.30
2023-05-15T13:41:01.522Z,18.67
2023-05-15T13:43:29.125Z,21.37
2023-05-15T13:45:56.616Z,21.27
2023-05-15T13:48:24.274Z,21.03
2023-05-15T13:50:51.809Z,19.63
2023-05-15T13:53:19.393Z,18.50
2023-05-15T13:55:47.085Z,18.20
2023-05-15T13:58:15.100Z,16.93
2023-05-15T14:00:43.705Z,16.47
2023-05-15T14:03:14.792Z,15.93
2023-05-15T14:05:42.853Z,15.33
2023-05-15T14:08:10.371Z,13.97
2023-05-15T14:10:38.210Z,13.80
2023-05-15T14:13:05.797Z,13.17
2023-05-15T14:15:33.392Z,12.07
2023-05-15T14:18:01.025Z,14.40
2023-05-15T14:20:28.747Z,17.57
2023-05-15T14:22:56.312Z,17.57
2023-05-15T14:25:23.943Z,16.70
2023-05-15T14:27:51.497Z,17.07
2023-05-15T14:30:19.265Z,17.67
2023-05-15T14:32:46.937Z,18.53
2023-05-15T14:35:14.540Z,17.90
2023-05-15T14:37:42.046Z,18.20
2023-05-15T14:40:09.985Z,16.27
2023-05-15T14:42:37.696Z,17.60
2023-05-15T14:45:05.499Z,17.50
2023-05-15T14:47:33.086Z,17.93
2023-05-15T14:50:00.740Z,17.57
2023-05-15T14:52:28.227Z,19.07
2023-05-15T14:55:07.733Z,20.10
2023-05-15T14:57:36.748Z,21.97
2023-05-15T15:00:04.778Z,20.10
2023-05-15T15:02:32.448Z,21.87
2023-05-15T15:04:59.997Z,22.40
2023-05-15T15:07:29.714Z,19.93
2023-05-15T15:09:57.254Z,22.17
2023-05-15T15:12:24.830Z,23.23
2023-05-15T15:14:52.432Z,22.83
2023-05-15T15:17:19.962Z,21.47
2023-05-15T15:19:47.513Z,23.17
2023-05-15T15:22:15.006Z,22.87
2023-05-15T15:24:42.579Z,23.87
2023-05-15T15:27:10.089Z,21.57
2023-05-15T15:29:37.690Z,19.27
2023-05-15T15:32:05.452Z,20.30
2023-05-15T15:34:34.298Z,21.27
2023-05-15T15:37:01.852Z,19.43
2023-05-15T15:39:29.424Z,18.90
2023-05-15T15:41:56.978Z,18.37
2023-05-15T15:44:24.678Z,18.57
2023-05-15T15:46:52.173Z,18.30
2023-05-15T15:49:19.736Z,19.17
2023-05-15T15:51:47.281Z,20.27
2023-05-15T15:54:14.850Z,17.80
2023-05-15T15:56:42.556Z,20.03
2023-05-15T15:59:10.233Z,23.30
2023-05-15T16:01:37.948Z,22.70
2023-05-15T16:04:05.715Z,20.10
2023-05-15T16:06:33.726Z,22.53
2023-05-15T16:09:02.305Z,22.23
2023-05-15T16:11:30.213Z,20.50
2023-05-15T16:13:57.742Z,19.50
2023-05-15T16:16:25.294Z,20.17
2023-05-15T16:18:53.074Z,15.87
2023-05-15T16:21:21.391Z,17.27
2023-05-15T16:23:48.976Z,16.77
2023-05-15T16:26:16.458Z,14.87
2023-05-15T16:28:44.036Z,17.87
2023-05-15T16:31:11.628Z,18.93
2023-05-15T16:33:39.323Z,18.40
2023-05-15T16:36:06.938Z,19.13
2023-05-15T16:38:34.731Z,22.03
2023-05-15T16:41:02.508Z,19.67
2023-05-15T16:43:30.114Z,22.97
2023-05-15T16:45:57.664Z,23.90
2023-05-15T16:48:25.367Z,24.20
2023-05-15T16:50:52.910Z,26.30
2023-05-15T16:53:20.789Z,26.70
2023-05-15T16:55:48.367Z,25.13
2023-05-15T16:58:16.086Z,25.87
2023-05-15T17:00:43.705Z,21.97
2023-05-15T17:03:11.326Z,21.50
2023-05-15T17:05:39.110Z,20.23
2023-05-15T17:08:06.664Z,18.27
2023-05-15T17:10:34.262Z,17.00
2023-05-15T17:13:01.850Z,14.90
2023-05-15T17:15:29.561Z,15.83
2023-05-15T17:17:57.145Z,16.70
2023-05-15T17:20:24.759Z,15.80
2023-05-15T17:22:52.330Z,13.47
2023-05-15T17:25:19.997Z,14.60
2023-05-15T17:27:47.505Z,15.00
2023-05-15T17:30:15.225Z,14.17
2023-05-15T17:32:42.764Z,14.43
2023-05-15T17:35:10.563Z,13.67
2023-05-15T17:37:38.079Z,12.80
2023-05-15T17:40:05.966Z,11.53
2023-05-15T17:42:33.480Z,12.17
2023-05-15T17:45:01.040Z,10.80
2023-05-15T17:47:28.628Z,9.53
2023-05-15T17:49:56.335Z,10.40
2023-05-15T17:52:23.905Z,10.03
2023-05-15T17:54:51.642Z,8.63
2023-05-15T17:57:19.265Z,8.93
2023-05-15T17:59:46.793Z,8.57
2023-05-15T18:02:14.405Z,8.13
2023-05-15T18:04:42.138Z,9.00
2023-05-15T18:07:09.700Z,8.70
2023-05-15T18:09:37.247Z,7.77
2023-05-15T18:12:04.883Z,7.93
2023-05-15T18:14:32.626Z,8.57
2023-05-15T18:17:00.150Z,8.00
2023-05-15T18:19:27.752Z,8.40
2023-05-15T18:21:55.239Z,6.97
2023-05-15T18:24:22.912Z,7.73
2023-05-15T18:26:50.525Z,8.10
2023-05-15T18:29:18.096Z,7.97
2023-05-15T18:31:45.609Z,7.70
2023-05-15T18:34:13.319Z,8.53
2023-05-15T18:36:40.872Z,7.20
2023-05-15T18:39:08.417Z,7.80
2023-05-15T18:41:35.938Z,6.73
2023-05-15T18:44:03.664Z,6.20
2023-05-15T18:46:31.269Z,6.83
2023-05-15T18:48:58.977Z,6.60
2023-05-15T18:51:26.542Z,5.07
2023-05-15T18:53:54.222Z,5.60
2023-05-15T18:56:21.741Z,5.70
2023-05-15T18:58:49.357Z,5.20
2023-05-15T19:01:16.983Z,5.00
2023-05-15T19:03:44.680Z,4.87
2023-05-15T19:06:12.277Z,5.40
2023-05-15T19:08:39.839Z,4.60
2023-05-15T19:11:07.558Z,4.57
2023-05-15T19:13:35.201Z,4.23
2023-05-15T19:16:02.897Z,4.50
2023-05-15T19:18:30.470Z,4.37
2023-05-15T19:20:58.098Z,4.30
2023-05-15T19:23:25.637Z,4.93
2023-05-15T19:25:53.200Z,4.37
2023-05-15T19:28:20.762Z,4.10
2023-05-15T19:30:48.305Z,3.80
2023-05-15T19:33:18.896Z,4.83
2023-05-15T19:35:46.597Z,4.30
2023-05-15T19:38:14.084Z,5.53
2023-05-15T19:40:43.566Z,5.27
2023-05-15T19:43:11.165Z,5.90
2023-05-15T19:45:44.941Z,4.90
2023-05-15T19:48:13.230Z,5.27
2023-05-15T19:50:40.890Z,5.07
2023-05-15T19:53:08.893Z,5.43
2023-05-15T19:55:36.398Z,5.77
2023-05-15T19:58:04.090Z,5.20
2023-05-15T20:00:31.895Z,5.57
2023-05-15T20:02:59.592Z,5.80
2023-05-15T20:05:27.318Z,6.37
2023-05-15T20:07:55.537Z,6.23
2023-05-15T20:10:23.452Z,5.70
2023-05-15T20:12:51.076Z,5.70
2023-05-15T20:15:18.669Z,6.83
2023-05-15T20:17:46.153Z,6.43
2023-05-15T20:20:13.672Z,6.13
2023-05-15T20:22:42.408Z,6.80
2023-05-15T20:25:10.108Z,6.70
2023-05-15T20:27:37.751Z,7.07
2023-05-15T20:30:05.437Z,6.37
2023-05-15T20:32:33.067Z,5.33
2023-05-15T20:35:00.637Z,6.07
2023-05-15T20:37:28.278Z,6.03
2023-05-15T20:39:55.766Z,5.63
2023-05-15T20:42:23.814Z,6.60
2023-05-15T20:44:51.660Z,6.53
2023-05-15T20:47:19.411Z,6.47
2023-05-15T20:49:47.106Z,6.37
2023-05-15T20:52:14.771Z,6.30
2023-05-15T20:54:42.297Z,6.40
2023-05-15T20:57:09.831Z,6.37
2023-05-15T20:59:37.361Z,6.43
2023-05-15T21:02:05.008Z,7.00
2023-05-15T21:04:32.572Z,6.53
2023-05-15T21:07:00.161Z,6.50
2023-05-15T21:09:27.730Z,7.10
2023-05-15T21:11:55.328Z,6.70
2023-05-15T21:14:22.879Z,7.33
2023-05-15T21:16:50.529Z,7.07
2023-05-15T21:19:18.213Z,7.03
2023-05-15T21:21:45.905Z,7.20
2023-05-15T21:24:13.433Z,7.87
2023-05-15T21:26:41.008Z,7.67
2023-05-15T21:29:09.014Z,7.63
2023-05-15T21:31:36.777Z,7.73
2023-05-15T21:34:04.609Z,7.23
2023-05-15T21:36:32.240Z,7.40
2023-05-15T21:38:59.745Z,7.07
2023-05-15T21:41:27.616Z,6.37
2023-05-15T21:43:55.658Z,6.50
2023-05-15T21:46:23.269Z,6.37
2023-05-15T21:48:50.807Z,6.00
2023-05-15T21:51:18.432Z,6.17
2023-05-15T21:53:45.921Z,5.23
2023-05-15T21:56:13.479Z,5.27
2023-05-15T21:58:41.029Z,5.20
2023-05-15T22:01:08.559Z,5.20
2023-05-15T22:03:36.199Z,5.37
2023-05-15T22:06:03.895Z,5.77
2023-05-15T22:08:31.386Z,4.90
2023-05-15T22:10:59.091Z,3.70
2023-05-15T22:13:26.637Z,4.83
2023-05-15T22:15:54.255Z,5.17
2023-05-15T22:18:21.793Z,4.47
2023-05-15T22:20:49.380Z,5.53
2023-05-15T22:23:16.851Z,5.30
2023-05-15T22:25:44.409Z,5.50
2023-05-15T22:28:11.896Z,7.20
2023-05-15T22:30:39.457Z,6.13
2023-05-15T22:33:07.032Z,5.87
2023-05-15T22:35:37.604Z,7.17
2023-05-15T22:38:05.169Z,7.27
2023-05-15T22:40:32.669Z,7.00
2023-05-15T22:43:00.263Z,7.70
2023-05-15T22:45:27.867Z,7.70
2023-05-15T22:47:55.436Z,6.27
2023-05-15T22:50:23.007Z,7.93
2023-05-15T22:52:50.561Z,7.00
2023-05-15T22:55:18.067Z,7.60
2023-05-15T22:57:45.658Z,8.43
2023-05-15T23:00:13.480Z,8.93
2023-05-15T23:02:42.642Z,8.87
2023-05-15T23:05:11.749Z,9.47
2023-05-15T23:07:39.242Z,9.00
2023-05-15T23:10:07.173Z,8.80
2023-05-15T23:12:34.683Z,10.87
2023-05-15T23:15:02.255Z,8.90
2023-05-15T23:17:29.904Z,10.80
2023-05-15T23:19:57.549Z,9.13
2023-05-15T23:22:25.168Z,7.10
2023-05-15T23:24:52.746Z,7.20
2023-05-15T23:27:20.267Z,4.90
2023-05-15T23:29:47.774Z,6.70
2023-05-15T23:32:15.344Z,7.40
2023-05-15T23:34:42.872Z,6.10
2023-05-15T23:37:10.422Z,6.17
2023-05-15T23:39:37.976Z,5.97
2023-05-15T23:42:05.592Z,6.90
2023-05-15T23:44:33.174Z,5.87
2023-05-15T23:47:00.861Z,7.60
2023-05-15T23:49:28.452Z,4.67
2023-05-15T23:51:55.985Z,3.77
2023-05-15T23:54:23.620Z,5.07
2023-05-15T23:56:51.245Z,4.90
2023-05-15T23:59:18.807Z,5.23
